Time;durP1;ratioP1;P1;durP2;ratioP2;P2;SDS_P1;SDS_P2;PMS_P1;PMS_P2;Temp;Humidity;BMP_temperature;BMP_pressure;BME280_temperature;BME280_humidity;BME280_pressure;Samples;Min_cycle;Max_cycle;Signal;HPM_P1;HPM_P2
2022/05/13 00:02:15;;;;;;;3.00;1.60;;;;;;;19.01;53.36;97502.88;4902853;28;20025;-77
2022/05/13 00:04:45;;;;;;;3.47;2.00;;;;;;;19.00;53.71;97505.78;4874034;28;20069;-77
2022/05/13 00:07:12;;;;;;;2.28;1.75;;;;;;;19.02;53.61;97503.63;4922881;28;20065;-77
2022/05/13 00:09:59;;;;;;;3.28;1.77;;;;;;;19.00;53.65;97500.50;4920249;28;20033;-76
2022/05/13 00:12:30;;;;;;;3.45;2.28;;;;;;;18.93;53.89;97498.25;4892151;28;20053;-77
2022/05/13 00:15:00;;;;;;;2.47;1.67;;;;;;;18.94;53.92;97491.91;4908521;28;20029;-77
2022/05/13 00:17:28;;;;;;;4.13;1.85;;;;;;;18.92;53.97;97491.41;4904214;28;20327;-77
2022/05/13 00:19:56;;;;;;;3.38;2.00;;;;;;;18.88;53.89;97496.50;4933030;28;20639;-77
2022/05/13 00:22:25;;;;;;;3.25;2.17;;;;;;;18.85;53.77;97499.72;4907068;28;20065;-77
2022/05/13 00:24:56;;;;;;;4.20;2.50;;;;;;;18.77;54.40;97507.47;4903694;28;20030;-77
2022/05/13 00:27:24;;;;;;;4.45;2.30;;;;;;;18.79;54.63;97500.81;4887834;28;20022;-77
2022/05/13 00:29:53;;;;;;;3.72;1.98;;;;;;;18.75;54.43;97510.41;4937328;28;20041;-77
2022/05/13 00:32:22;;;;;;;3.42;1.90;;;;;;;18.69;54.72;97507.03;4936232;28;20034;-77
2022/05/13 00:34:49;;;;;;;5.25;2.75;;;;;;;18.67;54.62;97496.00;4903177;28;20036;-77
2022/05/13 00:37:18;;;;;;;4.70;2.10;;;;;;;18.70;54.62;97507.84;4935528;28;20026;-76
2022/05/13 00:39:46;;;;;;;5.65;2.45;;;;;;;18.67;54.56;97505.78;4920289;28;20030;-77
2022/05/13 00:42:17;;;;;;;4.72;1.98;;;;;;;18.63;54.64;97507.44;4936867;28;20036;-77
2022/05/13 00:44:46;;;;;;;2.92;2.05;;;;;;;18.65;55.03;97505.28;4908029;28;20064;-77
2022/05/13 00:47:14;;;;;;;3.35;2.03;;;;;;;18.65;54.85;97515.84;4933574;28;20109;-77
2022/05/13 00:49:41;;;;;;;6.43;2.17;;;;;;;18.61;54.95;97514.84;4920307;28;20029;-77
2022/05/13 00:52:10;;;;;;;4.15;1.92;;;;;;;18.55;55.13;97510.72;4914735;28;20113;-77
2022/05/13 00:54:41;;;;;;;4.38;2.40;;;;;;;18.46;55.02;97506.09;4915472;28;20883;-77
2022/05/13 00:57:11;;;;;;;5.55;2.10;;;;;;;18.51;55.13;97500.75;4898160;28;20026;-77
2022/05/13 00:59:42;;;;;;;4.25;1.73;;;;;;;18.42;55.25;97497.22;4903992;28;20026;-77
2022/05/13 01:02:15;;;;;;;3.05;1.80;;;;;;;18.44;55.17;97500.34;4911332;28;20880;-77
2022/05/13 01:04:45;;;;;;;5.00;2.10;;;;;;;18.38;55.55;97492.78;4917390;28;20176;-77
2022/05/13 01:07:18;;;;;;;4.93;2.60;;;;;;;18.29;55.55;97493.44;4912908;28;20045;-77
2022/05/13 01:09:50;;;;;;;4.93;2.47;;;;;;;18.24;55.59;97495.38;4899537;28;20030;-77
2022/05/13 01:12:23;;;;;;;4.72;2.45;;;;;;;18.21;55.87;97498.56;4920791;28;20716;-77
2022/05/13 01:14:58;;;;;;;5.97;2.38;;;;;;;18.06;56.07;97499.56;4922466;28;20926;-77
2022/05/13 01:20:24;;;;;;;4.57;2.20;;;;;;;18.01;56.25;97497.81;4907180;28;20401;-77
2022/05/13 01:23:22;;;;;;;3.67;2.42;;;;;;;17.94;56.31;97492.88;4913803;28;20113;-77
2022/05/13 01:26:01;;;;;;;6.20;2.55;;;;;;;17.82;56.55;97494.31;4901942;28;20108;-77
2022/05/13 01:28:34;;;;;;;4.75;2.40;;;;;;;17.72;56.79;97488.13;4906160;28;20881;-77
2022/05/13 01:31:07;;;;;;;5.30;2.22;;;;;;;17.70;56.85;97492.09;4893262;28;20919;-77
2022/05/13 01:33:36;;;;;;;4.30;2.10;;;;;;;17.68;57.00;97489.72;4941406;28;20033;-77
2022/05/13 01:36:09;;;;;;;2.70;2.10;;;;;;;17.59;56.93;97488.81;4911227;28;20072;-77
2022/05/13 01:38:39;;;;;;;5.53;2.10;;;;;;;17.56;56.78;97486.72;4921423;28;20019;-77
2022/05/13 01:41:08;;;;;;;2.83;2.40;;;;;;;17.50;57.40;97482.59;4903009;28;20026;-77
2022/05/13 01:43:37;;;;;;;3.10;2.35;;;;;;;17.46;56.95;97482.38;4918644;28;20061;-77
2022/05/13 01:46:06;;;;;;;3.97;2.35;;;;;;;17.39;57.16;97482.72;4919324;28;20026;-77
2022/05/13 01:48:36;;;;;;;6.13;2.45;;;;;;;17.34;57.47;97480.16;4954009;28;20718;-77
2022/05/13 01:51:04;;;;;;;4.72;2.10;;;;;;;17.36;57.23;97485.91;4894212;28;20778;-78
2022/05/13 01:53:34;;;;;;;3.95;2.10;;;;;;;17.30;57.51;97486.25;4922261;28;20199;-77
2022/05/13 01:56:05;;;;;;;5.82;2.78;;;;;;;17.28;58.11;97483.13;4921904;28;20084;-77
2022/05/13 01:58:33;;;;;;;5.18;2.38;;;;;;;17.25;58.14;97487.06;4890609;28;20121;-77
2022/05/13 02:01:07;;;;;;;3.47;2.50;;;;;;;17.17;58.03;97488.50;4922607;28;20137;-77
2022/05/13 02:03:46;;;;;;;3.83;2.20;;;;;;;17.19;58.27;97480.31;4906410;28;20802;-77
2022/05/13 02:06:18;;;;;;;6.75;2.67;;;;;;;17.16;58.11;97478.25;4920328;28;20198;-77
2022/05/13 02:13:50;;;;;;;3.60;2.17;;;;;;;17.09;58.23;97483.06;4930687;28;20149;-78
2022/05/13 02:16:15;;;;;;;3.28;2.30;;;;;;;17.06;58.47;97475.72;4931068;28;20296;-77
2022/05/13 02:18:41;;;;;;;4.55;2.45;;;;;;;17.03;58.26;97464.69;4915693;28;20637;-77
2022/05/13 02:21:08;;;;;;;3.95;2.38;;;;;;;17.02;58.53;97475.50;4915850;28;20199;-77
2022/05/13 02:23:34;;;;;;;3.75;2.25;;;;;;;16.96;58.44;97468.69;4915470;28;20235;-77
2022/05/13 02:26:03;;;;;;;3.22;2.53;;;;;;;16.97;58.82;97478.94;4914914;28;20281;-77
2022/05/13 02:28:30;;;;;;;4.47;2.47;;;;;;;16.99;58.78;97479.44;4900291;28;20233;-77
2022/05/13 02:30:57;;;;;;;3.95;2.65;;;;;;;17.01;58.96;97482.56;4896662;28;20254;-77
2022/05/13 02:33:23;;;;;;;9.93;3.67;;;;;;;17.03;59.12;97483.09;4864451;28;20289;-77
2022/05/13 02:35:50;;;;;;;5.20;2.25;;;;;;;17.03;59.04;97480.47;4930745;28;20687;-77
2022/05/13 02:38:16;;;;;;;4.03;2.35;;;;;;;17.04;58.99;97482.03;4926371;28;20726;-77
2022/05/13 02:43:27;;;;;;;3.80;2.35;;;;;;;17.00;59.51;97478.38;4913959;28;20632;-77
2022/05/13 02:45:53;;;;;;;4.45;2.55;;;;;;;17.02;59.35;97475.50;4915183;28;20220;-77
2022/05/13 02:48:18;;;;;;;3.88;2.65;;;;;;;17.08;59.18;97481.47;4900020;28;20197;-77
2022/05/13 02:50:44;;;;;;;3.95;2.38;;;;;;;17.09;58.46;97485.69;4914893;28;20292;-77
2022/05/13 02:53:10;;;;;;;5.07;2.58;;;;;;;17.15;58.10;97480.09;4914412;28;20288;-77
2022/05/13 02:55:35;;;;;;;5.90;2.58;;;;;;;17.20;57.88;97484.50;4914632;28;20273;-77
2022/05/13 02:58:01;;;;;;;3.55;2.50;;;;;;;17.21;58.08;97491.34;4900327;28;20185;-77
2022/05/13 03:00:28;;;;;;;4.53;2.40;;;;;;;17.23;58.70;97497.09;4920737;28;20248;-77
2022/05/13 03:02:53;;;;;;;3.45;1.98;;;;;;;17.19;58.68;97494.25;4913967;28;20800;-77
2022/05/13 03:05:19;;;;;;;3.78;2.08;;;;;;;17.16;58.96;97492.16;4901618;28;20194;-77
2022/05/13 03:07:45;;;;;;;5.38;2.17;;;;;;;17.15;59.09;97490.63;4931797;28;20026;-77
2022/05/13 03:10:11;;;;;;;3.60;2.30;;;;;;;17.13;59.37;97481.41;4931237;28;20213;-77
2022/05/13 03:12:39;;;;;;;3.20;2.08;;;;;;;17.10;59.25;97482.78;4915718;28;20285;-77
2022/05/13 03:15:06;;;;;;;4.20;1.95;;;;;;;17.14;59.56;97485.63;4879683;28;20524;-77
2022/05/13 03:17:31;;;;;;;5.68;2.45;;;;;;;17.17;59.43;97483.22;4913422;28;20207;-77
2022/05/13 03:19:57;;;;;;;4.43;1.88;;;;;;;17.16;59.35;97483.50;4913379;28;20655;-77
2022/05/13 03:22:23;;;;;;;4.05;2.20;;;;;;;17.20;59.13;97482.66;4899161;28;20696;-77
2022/05/13 03:24:49;;;;;;;3.30;2.28;;;;;;;17.23;58.93;97489.22;4913948;28;20209;-78
2022/05/13 03:27:16;;;;;;;2.40;2.10;;;;;;;17.22;59.01;97496.31;4897239;28;20628;-78
2022/05/13 03:29:42;;;;;;;2.55;1.65;;;;;;;17.17;59.01;97495.56;4906155;28;20261;-77
2022/05/13 03:32:08;;;;;;;4.10;2.03;;;;;;;17.13;59.24;97495.34;4881372;28;20805;-78
2022/05/13 03:34:37;;;;;;;5.13;2.20;;;;;;;17.04;59.19;97487.28;4913931;28;20214;-78
2022/05/13 03:37:04;;;;;;;4.07;2.20;;;;;;;17.22;58.48;97498.16;4898298;28;20143;-78
2022/05/13 03:39:29;;;;;;;3.28;1.90;;;;;;;17.11;58.90;97496.72;4879376;28;20640;-78
2022/05/13 03:41:55;;;;;;;2.35;2.00;;;;;;;17.07;59.24;97495.69;4894734;28;20275;-78
2022/05/13 03:44:21;;;;;;;3.20;1.80;;;;;;;17.10;59.43;97503.03;4911968;28;20215;-78
2022/05/13 03:46:47;;;;;;;5.70;2.58;;;;;;;17.07;59.65;97500.94;4917744;28;20207;-77
2022/05/13 03:49:13;;;;;;;4.10;2.35;;;;;;;17.04;59.59;97495.19;4917403;28;20090;-78
2022/05/13 03:51:39;;;;;;;3.95;1.92;;;;;;;17.00;59.76;97502.06;4920672;28;20175;-78
2022/05/13 03:54:05;;;;;;;3.60;1.95;;;;;;;17.04;59.77;97497.03;4912736;28;20480;-78
2022/05/13 03:56:30;;;;;;;3.35;2.50;;;;;;;17.00;59.73;97507.34;4912125;28;20198;-78
2022/05/13 03:58:56;;;;;;;3.78;2.65;;;;;;;17.01;60.00;97495.72;4913355;28;20229;-78
2022/05/13 04:01:21;;;;;;;4.15;2.40;;;;;;;17.03;60.25;97501.53;4900334;28;20171;-78
2022/05/13 04:03:50;;;;;;;4.90;2.60;;;;;;;17.06;59.93;97499.38;4894431;28;20198;-78
2022/05/13 04:09:00;;;;;;;5.03;2.33;;;;;;;17.04;59.84;97500.44;4912694;28;20337;-78
2022/05/13 04:11:32;;;;;;;4.50;2.83;;;;;;;16.90;59.69;97496.91;4879047;28;20376;-78
2022/05/13 04:16:43;;;;;;;5.77;2.43;;;;;;;16.94;59.61;97502.38;4897894;28;20294;-78
2022/05/13 04:19:10;;;;;;;5.03;2.42;;;;;;;16.90;59.66;97496.91;4895090;28;20198;-78
2022/05/13 04:21:37;;;;;;;3.92;2.40;;;;;;;16.88;59.55;97495.59;4909929;28;20659;-78
2022/05/13 04:24:06;;;;;;;3.17;2.20;;;;;;;16.82;59.82;97507.97;4893717;28;20183;-78
2022/05/13 04:26:32;;;;;;;4.30;2.47;;;;;;;16.86;59.60;97493.25;4910138;28;20698;-78
2022/05/13 04:28:58;;;;;;;7.40;2.63;;;;;;;16.88;59.67;97504.28;4894872;28;20245;-78
2022/05/13 04:31:27;;;;;;;3.97;2.40;;;;;;;16.82;59.57;97500.88;4909694;28;20336;-78
2022/05/13 04:33:54;;;;;;;4.57;2.33;;;;;;;16.91;59.51;97501.09;4909733;28;20197;-78
2022/05/13 04:36:20;;;;;;;5.55;2.80;;;;;;;16.97;59.38;97505.25;4910198;28;20204;-78
2022/05/13 04:38:47;;;;;;;4.32;2.65;;;;;;;16.94;59.34;97508.44;4924003;28;20271;-78
2022/05/13 04:43:58;;;;;;;4.20;2.50;;;;;;;17.01;59.46;97516.78;4916286;28;20633;-78
2022/05/13 04:46:23;;;;;;;4.75;2.47;;;;;;;17.04;59.36;97516.22;4914703;28;20185;-78
2022/05/13 04:48:50;;;;;;;5.55;2.72;;;;;;;17.02;59.43;97510.47;4882536;28;20201;-78
2022/05/13 04:51:19;;;;;;;4.55;3.22;;;;;;;17.09;59.58;97509.38;4886595;28;20778;-78
2022/05/13 04:53:47;;;;;;;3.20;2.40;;;;;;;17.05;60.09;97509.13;4909967;28;20250;-78
2022/05/13 04:56:13;;;;;;;4.90;3.00;;;;;;;17.14;59.72;97517.97;4911132;28;20140;-78
2022/05/13 04:58:38;;;;;;;3.22;2.42;;;;;;;17.18;59.63;97512.94;4894790;28;20767;-78
2022/05/13 05:01:09;;;;;;;4.68;2.70;;;;;;;17.17;59.69;97511.38;4912072;28;20791;-78
2022/05/13 05:03:37;;;;;;;4.55;3.00;;;;;;;17.20;59.74;97510.81;4911939;28;20296;-78
2022/05/13 05:06:04;;;;;;;5.15;2.60;;;;;;;17.19;59.78;97504.00;4912637;28;20712;-78
2022/05/13 05:08:30;;;;;;;7.18;3.30;;;;;;;17.30;59.66;97515.97;4896747;28;20238;-78
2022/05/13 05:10:56;;;;;;;11.30;3.00;;;;;;;17.27;58.98;97513.13;4914295;28;20210;-78
2022/05/13 05:13:33;;;;;;;5.97;3.55;;;;;;;17.18;58.57;97528.72;4913436;28;20218;-78
2022/05/13 05:15:59;;;;;;;5.65;2.70;;;;;;;17.38;58.27;97528.53;4911905;28;20301;-78
2022/05/13 05:18:25;;;;;;;3.53;2.95;;;;;;;17.42;57.97;97524.25;4897656;28;20322;-78
2022/05/13 05:20:52;;;;;;;2.72;2.22;;;;;;;17.42;57.90;97539.28;4897549;28;20179;-78
2022/05/13 05:23:38;;;;;;;3.72;2.50;;;;;;;17.29;58.08;97539.94;4912718;28;20656;-78
2022/05/13 05:26:04;;;;;;;5.00;2.33;;;;;;;17.55;57.48;97543.88;4912747;28;20662;-78
2022/05/13 05:28:29;;;;;;;6.18;2.80;;;;;;;17.64;56.92;97545.91;4911554;28;20270;-78
2022/05/13 05:30:56;;;;;;;6.07;3.22;;;;;;;17.65;57.19;97547.44;4895581;28;20221;-77
2022/05/13 05:33:21;;;;;;;5.05;2.55;;;;;;;17.78;56.48;97558.09;4912917;28;20187;-77
2022/05/13 05:35:47;;;;;;;3.53;2.00;;;;;;;17.89;56.17;97558.81;4896984;28;20634;-77
2022/05/13 05:38:13;;;;;;;4.72;2.22;;;;;;;17.96;55.70;97564.50;4881410;28;20187;-78
2022/05/13 05:40:38;;;;;;;4.20;2.33;;;;;;;18.05;55.75;97567.28;4882331;28;20176;-77
2022/05/13 05:43:10;;;;;;;6.55;2.95;;;;;;;18.13;54.99;97569.31;4895654;28;20279;-78
2022/05/13 05:45:37;;;;;;;4.22;2.42;;;;;;;18.28;53.92;97570.16;4894514;28;20159;-77
2022/05/13 05:48:04;;;;;;;5.40;2.10;;;;;;;18.32;53.59;97574.59;4901369;28;20182;-77
2022/05/13 05:50:29;;;;;;;3.83;2.58;;;;;;;18.37;53.48;97581.66;4905388;28;20262;-77
2022/05/13 05:52:55;;;;;;;3.40;1.90;;;;;;;18.44;52.73;97584.72;4901437;28;20245;-79
2022/05/13 05:58:07;;;;;;;4.53;2.03;;;;;;;18.61;51.62;97591.31;4917050;28;20103;-79
2022/05/13 06:00:35;;;;;;;3.50;1.77;;;;;;;18.46;51.37;97595.75;4912946;28;20350;-77
2022/05/13 06:03:01;;;;;;;6.82;1.90;;;;;;;18.69;51.22;97590.69;4897838;28;20245;-77
2022/05/13 06:05:27;;;;;;;4.50;1.83;;;;;;;18.74;51.15;97593.25;4912451;28;20690;-77
2022/05/13 06:07:58;;;;;;;3.80;1.80;;;;;;;18.52;49.93;97602.53;4913027;28;20181;-77
2022/05/13 06:10:24;;;;;;;3.35;1.70;;;;;;;18.78;50.17;97607.44;4885878;28;20258;-76
2022/05/13 06:12:50;;;;;;;4.07;1.67;;;;;;;18.73;49.96;97618.06;4877780;28;20271;-76
2022/05/13 06:15:16;;;;;;;2.38;1.63;;;;;;;18.75;49.63;97605.38;4909994;28;20302;-76
2022/05/13 06:17:45;;;;;;;4.72;1.88;;;;;;;19.08;48.95;97613.34;4893597;28;20210;-77
2022/05/13 06:20:12;;;;;;;4.60;1.40;;;;;;;19.23;47.87;97618.38;4927161;28;20210;-76
2022/05/13 06:22:37;;;;;;;2.53;1.65;;;;;;;19.50;47.65;97629.25;4888823;28;20277;-76
2022/05/13 06:25:04;;;;;;;3.63;1.85;;;;;;;19.68;46.55;97615.22;4908150;28;20376;-77
2022/05/13 06:27:29;;;;;;;3.20;1.67;;;;;;;19.67;47.22;97631.34;4945333;28;20209;-77
2022/05/13 06:29:56;;;;;;;2.97;1.83;;;;;;;19.79;47.12;97632.47;4952528;28;20539;-77
2022/05/13 06:32:22;;;;;;;3.60;1.42;;;;;;;20.08;45.79;97633.25;4919172;28;20205;-77
2022/05/13 06:34:47;;;;;;;3.53;2.15;;;;;;;20.13;45.69;97641.06;4913676;28;20183;-76
2022/05/13 06:37:12;;;;;;;3.25;1.40;;;;;;;20.02;46.36;97646.56;4896504;28;20227;-76
2022/05/13 06:39:38;;;;;;;3.63;1.48;;;;;;;20.23;45.99;97654.09;4901516;28;20695;-77
2022/05/13 06:42:04;;;;;;;3.72;1.52;;;;;;;20.48;44.79;97646.72;4914539;28;20291;-77
2022/05/13 06:44:29;;;;;;;2.80;1.90;;;;;;;20.77;44.10;97638.44;4930442;28;20253;-78
2022/05/13 06:46:55;;;;;;;2.63;1.50;;;;;;;20.94;44.50;97646.53;4901637;28;20693;-77
2022/05/13 06:49:20;;;;;;;4.57;2.28;;;;;;;21.22;44.05;97653.56;4882788;28;20182;-77
2022/05/13 06:51:45;;;;;;;3.28;1.73;;;;;;;20.98;44.35;97649.34;4913004;28;20159;-77
2022/05/13 06:54:11;;;;;;;4.38;1.60;;;;;;;20.90;45.13;97647.41;4896886;28;20288;-77
2022/05/13 06:56:39;;;;;;;3.72;1.33;;;;;;;21.21;43.88;97646.69;4913387;28;20302;-77
2022/05/13 06:59:05;;;;;;;4.32;1.92;;;;;;;21.28;42.67;97655.00;4914423;28;20667;-78
2022/05/13 07:01:31;;;;;;;5.15;2.03;;;;;;;21.09;43.91;97655.94;4913528;28;20249;-77
2022/05/13 07:03:56;;;;;;;2.72;1.50;;;;;;;21.15;43.35;97661.94;4914683;28;20241;-78
2022/05/13 07:06:22;;;;;;;4.15;1.70;;;;;;;21.23;43.39;97655.13;4899069;28;20076;-77
2022/05/13 07:08:49;;;;;;;3.97;2.13;;;;;;;21.06;44.15;97651.28;4914445;28;20247;-77
2022/05/13 07:11:15;;;;;;;4.75;1.90;;;;;;;21.09;43.42;97655.94;4909776;28;20655;-77
2022/05/13 07:13:41;;;;;;;4.85;1.90;;;;;;;21.47;42.44;97649.53;4912192;28;20301;-77
2022/05/13 07:16:06;;;;;;;2.85;1.60;;;;;;;21.66;40.88;97654.59;4926955;28;20342;-78
2022/05/13 07:18:31;;;;;;;3.45;1.40;;;;;;;21.54;41.99;97657.03;4881100;28;20608;-77
2022/05/13 07:20:57;;;;;;;3.47;2.05;;;;;;;21.42;42.10;97653.06;4915890;28;20629;-76
2022/05/13 07:23:22;;;;;;;5.10;1.83;;;;;;;21.30;42.61;97656.25;4903970;28;20096;-77
2022/05/13 07:25:47;;;;;;;3.10;1.35;;;;;;;21.77;41.65;97665.75;4924216;28;20624;-76
2022/05/13 07:28:13;;;;;;;4.13;2.05;;;;;;;21.99;40.95;97663.00;4882873;28;20576;-77
2022/05/13 07:30:39;;;;;;;5.50;1.85;;;;;;;21.79;41.11;97661.69;4914163;28;20253;-76
2022/05/13 07:33:04;;;;;;;4.90;1.75;;;;;;;21.86;40.92;97662.00;4908579;28;20199;-77
2022/05/13 07:35:30;;;;;;;4.13;1.88;;;;;;;22.14;40.38;97655.72;4913047;28;20167;-78
2022/05/13 07:37:56;;;;;;;3.15;1.70;;;;;;;22.52;39.42;97666.59;4915045;28;20194;-77
2022/05/13 07:43:05;;;;;;;5.07;1.30;;;;;;;22.71;37.99;97668.19;4905811;28;20285;-78
2022/05/13 07:45:31;;;;;;;4.20;1.75;;;;;;;22.62;37.07;97671.63;4903383;28;20272;-77
2022/05/13 07:47:56;;;;;;;5.68;2.00;;;;;;;22.55;38.27;97675.81;4895430;28;20284;-77
2022/05/13 07:50:22;;;;;;;2.78;1.42;;;;;;;22.71;37.44;97678.81;4920765;28;20252;-77
2022/05/13 07:52:50;;;;;;;3.03;1.40;;;;;;;22.65;37.82;97680.03;4912236;28;20155;-78
2022/05/13 07:55:15;;;;;;;4.80;1.42;;;;;;;22.77;37.35;97677.56;4904284;28;20170;-77
2022/05/13 07:57:42;;;;;;;3.08;1.42;;;;;;;22.57;38.59;97685.03;4896232;28;20285;-77
2022/05/13 08:00:25;;;;;;;3.08;1.40;;;;;;;22.39;38.31;97680.78;4901590;28;20691;-77
2022/05/13 08:03:19;;;;;;;4.75;1.27;;;;;;;22.24;38.34;97676.66;4901832;28;20185;-77
2022/05/13 08:05:50;;;;;;;5.55;1.60;;;;;;;22.33;38.73;97674.84;4915191;28;20334;-77
2022/05/13 08:08:23;;;;;;;3.50;1.42;;;;;;;22.49;37.65;97677.06;4915500;28;20702;-78
2022/05/13 08:10:52;;;;;;;3.28;1.10;;;;;;;22.63;36.64;97677.69;4915592;28;20253;-77
2022/05/13 08:13:18;;;;;;;4.13;1.55;;;;;;;22.59;37.23;97668.81;4924478;28;20269;-77
2022/05/13 08:15:44;;;;;;;4.22;1.70;;;;;;;22.32;37.61;97662.66;4920702;28;20302;-78
2022/05/13 08:18:09;;;;;;;3.65;1.10;;;;;;;22.67;36.97;97661.94;4881594;28;20310;-77
2022/05/13 08:20:35;;;;;;;4.13;1.48;;;;;;;22.61;36.25;97671.94;4902667;28;20205;-78
2022/05/13 08:23:03;;;;;;;3.22;1.20;;;;;;;22.74;36.11;97664.91;4891454;28;20224;-77
2022/05/13 08:25:29;;;;;;;4.88;1.10;;;;;;;22.69;35.89;97667.69;4903667;28;20248;-78
2022/05/13 08:27:56;;;;;;;4.28;1.35;;;;;;;22.90;35.91;97673.97;4933952;28;20163;-77
2022/05/13 08:30:25;;;;;;;3.53;1.20;;;;;;;23.21;35.81;97670.38;4933747;28;20608;-77
2022/05/13 08:32:52;;;;;;;4.20;1.25;;;;;;;23.35;34.75;97660.34;4893892;28;20277;-77
2022/05/13 08:35:20;;;;;;;2.85;1.25;;;;;;;23.48;34.34;97663.94;4909708;28;20190;-78
2022/05/13 08:37:50;;;;;;;3.47;1.38;;;;;;;23.46;34.56;97660.00;4908839;28;20338;-77
2022/05/13 08:40:45;;;;;;;3.08;1.25;;;;;;;23.36;34.29;97650.50;4927765;28;20197;-77
2022/05/13 08:43:17;;;;;;;4.32;1.38;;;;;;;23.56;38.09;97652.50;4925680;28;20209;-76
2022/05/13 08:46:27;;;;;;;3.42;1.17;;;;;;;23.36;34.97;97655.84;4892741;28;20303;-75
2022/05/13 08:48:53;;;;;;;2.55;1.10;;;;;;;23.66;33.82;97654.00;4910490;28;20206;-77
2022/05/13 08:51:58;;;;;;;1.90;1.10;;;;;;;23.28;34.48;97668.03;4933823;28;20210;-77
2022/05/13 08:54:30;;;;;;;4.88;1.50;;;;;;;23.53;34.23;97658.44;4906663;28;20080;-77
2022/05/13 08:57:00;;;;;;;2.78;1.30;;;;;;;23.79;33.99;97656.81;4891437;28;20292;-76
2022/05/13 08:59:41;;;;;;;3.25;1.10;;;;;;;23.88;34.04;97668.97;4912028;28;20258;-77
2022/05/13 09:02:18;;;;;;;1.95;1.00;;;;;;;23.94;33.42;97661.63;4916317;28;20201;-78
2022/05/13 09:05:25;;;;;;;3.90;1.50;;;;;;;23.55;33.00;97674.84;4926957;28;20643;-77
2022/05/13 09:07:51;;;;;;;4.30;1.50;;;;;;;23.84;33.39;97652.09;4856040;29;20796;-77
2022/05/13 09:10:17;;;;;;;3.67;1.60;;;;;;;23.83;33.12;97663.84;4915185;28;20194;-77
2022/05/13 09:12:58;;;;;;;2.63;1.38;;;;;;;23.79;33.31;97659.47;4912028;28;20227;-76
2022/05/13 09:15:29;;;;;;;4.03;1.08;;;;;;;23.81;32.69;97668.69;4909759;28;20298;-76
2022/05/13 09:18:17;;;;;;;2.80;1.20;;;;;;;24.29;32.08;97656.09;4907148;28;20167;-77
2022/05/13 09:20:56;;;;;;;4.22;1.40;;;;;;;24.15;33.71;97668.88;4909223;28;20629;-77
2022/05/13 09:23:22;;;;;;;2.80;0.93;;;;;;;24.45;30.75;97665.09;4907119;28;20628;-76
2022/05/13 09:26:03;;;;;;;2.10;0.73;;;;;;;24.29;30.24;97669.41;4926380;28;20353;-76
2022/05/13 09:28:34;;;;;;;5.28;1.10;;;;;;;24.45;30.46;97666.97;4931534;28;20183;-77
2022/05/13 09:31:07;;;;;;;3.38;0.95;;;;;;;24.58;30.92;97665.19;4906878;28;20645;-76
2022/05/13 09:33:35;;;;;;;2.97;1.08;;;;;;;24.92;29.83;97666.03;4924178;28;20281;-76
2022/05/13 09:36:29;;;;;;;3.20;1.10;;;;;;;24.71;29.74;97674.03;4915201;28;20659;-76
2022/05/13 09:39:23;;;;;;;2.42;1.00;;;;;;;24.82;29.82;97673.31;4894146;28;20635;-77
2022/05/13 09:41:49;;;;;;;1.80;0.80;;;;;;;25.02;29.28;97676.31;4892553;28;20247;-77
2022/05/13 09:44:25;;;;;;;2.05;1.00;;;;;;;24.52;32.96;97677.09;4926804;28;21233;-76
2022/05/13 09:47:06;;;;;;;3.55;1.08;;;;;;;24.90;30.48;97674.34;4905443;28;20241;-77
2022/05/13 09:49:36;;;;;;;3.92;0.80;;;;;;;24.99;28.02;97668.94;4877534;28;20254;-77
2022/05/13 09:52:15;;;;;;;2.00;0.70;;;;;;;25.03;28.29;97669.84;4925628;28;20287;-77
2022/05/13 09:54:43;;;;;;;3.83;0.77;;;;;;;25.29;28.56;97666.19;4908552;28;20282;-76
2022/05/13 09:57:22;;;;;;;2.15;0.73;;;;;;;25.30;27.67;97662.44;4932413;28;20234;-77
2022/05/13 10:00:15;;;;;;;3.08;1.60;;;;;;;24.97;27.91;97663.94;4909302;28;20596;-76
2022/05/13 10:02:47;;;;;;;1.10;0.68;;;;;;;25.10;30.82;97664.75;4910125;28;20447;-76
2022/05/13 10:05:26;;;;;;;1.02;0.70;;;;;;;25.19;27.47;97665.47;4907981;28;20218;-76
2022/05/13 10:07:55;;;;;;;2.80;0.70;;;;;;;25.04;26.65;97666.84;4918496;28;20269;-77
2022/05/13 10:16:07;;;;;;;2.00;1.20;;;;;;;24.90;26.23;97661.03;4926175;28;20231;-77
2022/05/13 10:18:37;;;;;;;2.17;0.60;;;;;;;24.95;27.33;97657.38;4905739;28;20285;-77
2022/05/13 10:21:15;;;;;;;3.72;0.63;;;;;;;25.07;27.92;97660.13;4902603;28;20224;-76
2022/05/13 10:24:01;;;;;;;3.65;0.90;;;;;;;24.98;26.42;97657.50;4894449;28;20126;-76
2022/05/13 10:26:35;;;;;;;2.47;1.02;;;;;;;25.00;27.22;97655.31;4890587;28;20167;-77
2022/05/13 10:29:20;;;;;;;4.15;0.88;;;;;;;25.14;26.51;97663.03;4912869;28;20204;-76
2022/05/13 10:31:46;;;;;;;2.42;0.52;;;;;;;25.52;26.17;97659.38;4914160;28;20214;-76
2022/05/13 10:34:31;;;;;;;2.60;0.98;;;;;;;25.35;28.91;97655.00;4920698;28;20584;-76
2022/05/13 10:37:15;;;;;;;;;;;;;;;25.53;26.77;97658.28;4929800;28;20325;-76
2022/05/13 10:39:55;;;;;;;0.68;0.60;;;;;;;26.22;26.43;97663.88;4915468;28;20145;-76
2022/05/13 10:42:23;;;;;;;3.97;0.95;;;;;;;26.23;27.09;97660.09;4892962;28;20186;-76
2022/05/13 10:44:59;;;;;;;1.05;0.70;;;;;;;26.57;25.58;97657.25;4922590;28;20179;-77
2022/05/13 10:47:42;;;;;;;2.35;1.10;;;;;;;26.45;24.55;97658.06;4900795;28;20119;-76
2022/05/13 10:50:16;;;;;;;2.85;0.93;;;;;;;26.64;24.40;97658.25;4909831;28;20195;-77
2022/05/13 10:52:45;;;;;;;2.25;0.90;;;;;;;26.33;24.62;97654.28;4897606;28;20146;-76
2022/05/13 10:55:16;;;;;;;1.10;0.60;;;;;;;26.03;25.58;97656.44;4925669;28;20224;-77
2022/05/13 10:57:54;;;;;;;1.90;0.80;;;;;;;26.57;26.36;97652.69;4923167;28;20632;-76
2022/05/13 11:00:29;;;;;;;1.98;1.10;;;;;;;26.54;24.65;97648.03;4910851;28;20673;-77
2022/05/13 11:03:01;;;;;;;2.00;1.17;;;;;;;26.45;24.21;97650.06;4909145;28;20034;-77
2022/05/13 11:05:39;;;;;;;1.45;1.10;;;;;;;26.09;24.65;97646.31;4924879;28;20230;-77
2022/05/13 11:08:16;;;;;;;3.58;1.58;;;;;;;25.94;27.16;97643.22;4889858;28;20237;-76
2022/05/13 11:11:16;;;;;;;2.97;0.90;;;;;;;26.34;26.56;97645.19;4907825;28;20405;-77
2022/05/13 11:13:50;;;;;;;0.73;0.60;;;;;;;26.40;26.31;97636.94;4913278;28;20172;-76
2022/05/13 11:16:25;;;;;;;4.43;0.88;;;;;;;26.45;26.04;97650.06;4916076;28;20617;-77
2022/05/13 11:19:04;;;;;;;1.75;0.77;;;;;;;26.44;24.51;97640.47;4934129;28;20111;-75
2022/05/13 11:21:46;;;;;;;2.05;0.85;;;;;;;26.48;25.89;97639.47;4908021;28;20180;-77
2022/05/13 11:27:25;;;;;;;2.28;0.80;;;;;;;25.89;26.61;97645.28;4933429;28;20770;-76
2022/05/13 11:29:55;;;;;;;2.55;0.77;;;;;;;25.75;26.67;97645.63;4916695;28;20041;-77
2022/05/13 11:32:20;;;;;;;3.45;0.93;;;;;;;25.50;25.58;97644.78;4916710;28;20064;-76
2022/05/13 11:35:23;;;;;;;2.00;0.90;;;;;;;25.45;25.66;97651.13;4933797;28;20053;-76
2022/05/13 11:37:50;;;;;;;2.15;0.80;;;;;;;25.39;24.76;97639.88;4932674;28;20131;-76
2022/05/13 11:40:19;;;;;;;2.38;0.70;;;;;;;25.30;25.35;97639.22;4916218;28;20736;-76
2022/05/13 11:45:56;;;;;;;1.88;0.75;;;;;;;25.24;24.91;97637.81;4931647;28;20022;-76
2022/05/13 11:48:24;;;;;;;1.33;0.70;;;;;;;25.24;25.33;97640.50;4896025;28;20806;-76
2022/05/13 11:50:50;;;;;;;2.15;0.80;;;;;;;25.44;24.67;97644.22;4905577;28;20038;-77
2022/05/13 11:53:50;;;;;;;1.33;0.60;;;;;;;25.86;24.70;97641.41;4905079;28;20056;-76
2022/05/13 11:56:25;;;;;;;1.08;0.68;;;;;;;26.63;27.08;97637.22;4896390;28;20068;-76
2022/05/13 11:59:01;;;;;;;0.98;0.80;;;;;;;27.14;24.43;97632.13;4928866;28;20332;-76
2022/05/13 12:01:38;;;;;;;1.65;0.90;;;;;;;27.15;24.88;97630.25;4926029;28;20060;-77
2022/05/13 12:04:13;;;;;;;1.42;0.60;;;;;;;27.07;23.05;97632.72;4925880;28;20097;-76
2022/05/13 12:06:48;;;;;;;1.35;0.98;;;;;;;27.53;22.94;97637.72;4905276;28;20757;-77
2022/05/13 12:09:14;;;;;;;1.42;0.90;;;;;;;27.39;23.55;97635.47;4933221;28;20100;-77
2022/05/13 12:12:11;;;;;;;3.13;0.98;;;;;;;27.16;23.74;97629.13;4906761;28;20030;-76
2022/05/13 12:15:05;;;;;;;3.97;1.00;;;;;;;26.54;23.50;97632.78;4923871;28;20077;-77
2022/05/13 12:17:49;;;;;;;1.00;0.60;;;;;;;25.88;23.28;97631.19;4924843;28;20061;-77
2022/05/13 12:20:33;;;;;;;1.58;0.93;;;;;;;25.35;24.97;97636.34;4912378;28;20042;-77
2022/05/13 12:23:22;;;;;;;2.30;0.98;;;;;;;25.24;26.11;97630.63;4929697;28;20021;-77
2022/05/13 12:25:54;;;;;;;2.15;0.82;;;;;;;24.77;26.84;97636.22;4885972;28;20913;-77
2022/05/13 12:28:19;;;;;;;2.83;0.80;;;;;;;24.41;28.07;97626.91;4890571;28;20026;-76